Terminal Aerodrome Forecast
Issued by NWS

Home | Current Version | Previous Version | Graphics & Text | Print | Product List | Glossary On
Versions: 1 2 3 4 5 6 7 8 9 10 11 12 13
000
FTUS43 KMPX 132300
TAFRNH
TAF
KRNH 132321Z 1400/1424 17007KT P6SM SCT060 BKN150
     FM141300 23008KT P6SM SCT200
     FM141800 27010KT P6SM FEW070 BKN150=

USA.gov is the U.S. government's official web portal to all federal, state and local government web resources and services.